sensor_id;sensor_type;location;lat;lon;timestamp;temperature;humidity
27801;DHT22;15181;49.112;11.930;2022-11-23T00:01:53;4.90;99.90
27801;DHT22;15181;49.112;11.930;2022-11-23T00:04:21;4.90;99.90
27801;DHT22;15181;49.112;11.930;2022-11-23T00:06:50;4.90;99.90
27801;DHT22;15181;49.112;11.930;2022-11-23T00:09:17;4.90;99.90
27801;DHT22;15181;49.112;11.930;2022-11-23T00:11:44;4.90;99.90
27801;DHT22;15181;49.112;11.930;2022-11-23T00:14:11;4.90;99.90
27801;DHT22;15181;49.112;11.930;2022-11-23T00:16:38;4.90;99.90
27801;DHT22;15181;49.112;11.930;2022-11-23T00:19:04;4.90;99.90
27801;DHT22;15181;49.112;11.930;2022-11-23T00:21:33;5.10;99.90
27801;DHT22;15181;49.112;11.930;2022-11-23T00:24:00;4.90;99.90
27801;DHT22;15181;49.112;11.930;2022-11-23T00:26:27;4.80;99.90
27801;DHT22;15181;49.112;11.930;2022-11-23T00:28:54;4.90;99.90
27801;DHT22;15181;49.112;11.930;2022-11-23T00:31:21;4.80;99.90
27801;DHT22;15181;49.112;11.930;2022-11-23T00:33:50;4.80;99.90
27801;DHT22;15181;49.112;11.930;2022-11-23T00:36:17;4.80;99.90
27801;DHT22;15181;49.112;11.930;2022-11-23T00:38:47;4.90;99.90
27801;DHT22;15181;49.112;11.930;2022-11-23T00:41:16;4.90;99.90
27801;DHT22;15181;49.112;11.930;2022-11-23T00:43:43;4.90;99.90
27801;DHT22;15181;49.112;11.930;2022-11-23T00:46:12;4.90;99.90
27801;DHT22;15181;49.112;11.930;2022-11-23T00:48:40;4.90;99.90
27801;DHT22;15181;49.112;11.930;2022-11-23T00:51:09;4.90;99.90
27801;DHT22;15181;49.112;11.930;2022-11-23T00:53:36;4.90;99.90
27801;DHT22;15181;49.112;11.930;2022-11-23T00:56:05;4.90;99.90
27801;DHT22;15181;49.112;11.930;2022-11-23T00:58:32;4.90;99.90
27801;DHT22;15181;49.112;11.930;2022-11-23T01:01:03;4.90;99.90
27801;DHT22;15181;49.112;11.930;2022-11-23T01:03:31;4.90;99.90
27801;DHT22;15181;49.112;11.930;2022-11-23T01:06:02;4.90;99.90
27801;DHT22;15181;49.112;11.930;2022-11-23T01:08:29;4.90;99.90
27801;DHT22;15181;49.112;11.930;2022-11-23T01:11:00;4.90;99.90
27801;DHT22;15181;49.112;11.930;2022-11-23T01:13:29;4.80;99.90
27801;DHT22;15181;49.112;11.930;2022-11-23T01:15:56;4.80;99.90
27801;DHT22;15181;49.112;11.930;2022-11-23T01:18:24;4.80;99.90
27801;DHT22;15181;49.112;11.930;2022-11-23T01:20:51;4.80;99.90
27801;DHT22;15181;49.112;11.930;2022-11-23T01:23:18;4.80;99.90
27801;DHT22;15181;49.112;11.930;2022-11-23T01:25:45;4.80;99.90
27801;DHT22;15181;49.112;11.930;2022-11-23T01:28:12;4.80;99.90
27801;DHT22;15181;49.112;11.930;2022-11-23T01:30:41;4.80;99.90
27801;DHT22;15181;49.112;11.930;2022-11-23T01:33:07;4.80;99.90
27801;DHT22;15181;49.112;11.930;2022-11-23T01:35:34;4.80;99.90
27801;DHT22;15181;49.112;11.930;2022-11-23T01:38:01;4.80;99.90
27801;DHT22;15181;49.112;11.930;2022-11-23T01:40:28;4.80;99.90
27801;DHT22;15181;49.112;11.930;2022-11-23T01:42:56;4.80;99.90
27801;DHT22;15181;49.112;11.930;2022-11-23T01:45:35;4.80;99.90
27801;DHT22;15181;49.112;11.930;2022-11-23T01:48:06;4.80;99.90
27801;DHT22;15181;49.112;11.930;2022-11-23T01:50:35;4.80;99.90
27801;DHT22;15181;49.112;11.930;2022-11-23T01:53:02;4.80;99.90
27801;DHT22;15181;49.112;11.930;2022-11-23T01:55:30;4.80;99.90
27801;DHT22;15181;49.112;11.930;2022-11-23T01:57:58;4.80;99.90
27801;DHT22;15181;49.112;11.930;2022-11-23T02:00:26;4.80;99.90
27801;DHT22;15181;49.112;11.930;2022-11-23T02:02:55;4.80;99.90
27801;DHT22;15181;49.112;11.930;2022-11-23T02:05:29;4.80;99.90
27801;DHT22;15181;49.112;11.930;2022-11-23T02:07:59;4.80;99.90
27801;DHT22;15181;49.112;11.930;2022-11-23T02:10:29;4.80;99.90
27801;DHT22;15181;49.112;11.930;2022-11-23T02:13:00;4.80;99.90
27801;DHT22;15181;49.112;11.930;2022-11-23T02:15:27;4.90;99.90
27801;DHT22;15181;49.112;11.930;2022-11-23T02:17:54;4.80;99.90
27801;DHT22;15181;49.112;11.930;2022-11-23T02:20:21;5.00;99.90
27801;DHT22;15181;49.112;11.930;2022-11-23T02:22:58;4.90;99.90
27801;DHT22;15181;49.112;11.930;2022-11-23T02:25:33;4.90;99.90
27801;DHT22;15181;49.112;11.930;2022-11-23T02:28:04;4.90;99.90
27801;DHT22;15181;49.112;11.930;2022-11-23T02:30:33;4.80;99.90
27801;DHT22;15181;49.112;11.930;2022-11-23T02:33:02;4.90;99.90
27801;DHT22;15181;49.112;11.930;2022-11-23T02:35:29;4.80;99.90
27801;DHT22;15181;49.112;11.930;2022-11-23T02:37:56;4.80;99.90
27801;DHT22;15181;49.112;11.930;2022-11-23T02:40:28;4.90;99.90
27801;DHT22;15181;49.112;11.930;2022-11-23T02:42:56;4.90;99.90
27801;DHT22;15181;49.112;11.930;2022-11-23T02:45:32;4.90;99.90
27801;DHT22;15181;49.112;11.930;2022-11-23T02:48:00;4.90;99.90
27801;DHT22;15181;49.112;11.930;2022-11-23T02:50:26;4.80;99.90
27801;DHT22;15181;49.112;11.930;2022-11-23T02:52:54;4.90;99.90
27801;DHT22;15181;49.112;11.930;2022-11-23T02:55:21;4.90;99.90
27801;DHT22;15181;49.112;11.930;2022-11-23T02:57:48;4.90;99.90
27801;DHT22;15181;49.112;11.930;2022-11-23T03:00:15;4.90;99.90
27801;DHT22;15181;49.112;11.930;2022-11-23T03:02:44;4.90;99.90
27801;DHT22;15181;49.112;11.930;2022-11-23T03:05:11;4.90;99.90
27801;DHT22;15181;49.112;11.930;2022-11-23T03:07:38;4.90;99.90
27801;DHT22;15181;49.112;11.930;2022-11-23T03:10:05;4.90;99.90
27801;DHT22;15181;49.112;11.930;2022-11-23T03:12:32;4.90;99.90
27801;DHT22;15181;49.112;11.930;2022-11-23T03:14:59;4.90;99.90
27801;DHT22;15181;49.112;11.930;2022-11-23T03:17:26;4.90;99.90
27801;DHT22;15181;49.112;11.930;2022-11-23T03:19:54;4.90;99.90
27801;DHT22;15181;49.112;11.930;2022-11-23T03:22:21;4.90;99.90
27801;DHT22;15181;49.112;11.930;2022-11-23T03:24:48;4.80;99.90
27801;DHT22;15181;49.112;11.930;2022-11-23T03:27:15;4.80;99.90
27801;DHT22;15181;49.112;11.930;2022-11-23T03:29:42;4.80;99.90
27801;DHT22;15181;49.112;11.930;2022-11-23T03:32:09;4.80;99.90
27801;DHT22;15181;49.112;11.930;2022-11-23T03:34:36;4.70;99.90
27801;DHT22;15181;49.112;11.930;2022-11-23T03:37:04;4.70;99.90
27801;DHT22;15181;49.112;11.930;2022-11-23T03:39:31;4.70;99.90
27801;DHT22;15181;49.112;11.930;2022-11-23T03:41:58;4.70;99.90
27801;DHT22;15181;49.112;11.930;2022-11-23T03:44:25;4.70;99.90
27801;DHT22;15181;49.112;11.930;2022-11-23T03:46:52;4.60;99.90
27801;DHT22;15181;49.112;11.930;2022-11-23T03:49:19;4.60;99.90
27801;DHT22;15181;49.112;11.930;2022-11-23T03:51:46;4.60;99.90
27801;DHT22;15181;49.112;11.930;2022-11-23T03:54:14;4.60;99.90
27801;DHT22;15181;49.112;11.930;2022-11-23T03:56:41;4.60;99.90
27801;DHT22;15181;49.112;11.930;2022-11-23T03:59:07;4.60;99.90
27801;DHT22;15181;49.112;11.930;2022-11-23T04:01:34;4.70;99.90
27801;DHT22;15181;49.112;11.930;2022-11-23T04:04:01;4.60;99.90
27801;DHT22;15181;49.112;11.930;2022-11-23T04:06:28;4.60;99.90
27801;DHT22;15181;49.112;11.930;2022-11-23T04:08:55;4.60;99.90
27801;DHT22;15181;49.112;11.930;2022-11-23T04:11:23;4.60;99.90
27801;DHT22;15181;49.112;11.930;2022-11-23T04:13:50;4.60;99.90
27801;DHT22;15181;49.112;11.930;2022-11-23T04:16:17;4.60;99.90
27801;DHT22;15181;49.112;11.930;2022-11-23T04:18:44;4.70;99.90
27801;DHT22;15181;49.112;11.930;2022-11-23T04:21:11;4.60;99.90
27801;DHT22;15181;49.112;11.930;2022-11-23T04:23:38;4.60;99.90
27801;DHT22;15181;49.112;11.930;2022-11-23T04:26:05;4.50;99.90
27801;DHT22;15181;49.112;11.930;2022-11-23T04:28:33;4.60;99.90
27801;DHT22;15181;49.112;11.930;2022-11-23T04:31:00;4.50;99.90
27801;DHT22;15181;49.112;11.930;2022-11-23T04:33:26;4.50;99.90
27801;DHT22;15181;49.112;11.930;2022-11-23T04:35:53;4.60;99.90
27801;DHT22;15181;49.112;11.930;2022-11-23T04:38:20;4.60;99.90
27801;DHT22;15181;49.112;11.930;2022-11-23T04:40:47;4.60;99.90
27801;DHT22;15181;49.112;11.930;2022-11-23T04:43:14;4.50;99.90
27801;DHT22;15181;49.112;11.930;2022-11-23T04:45:43;4.50;99.90
27801;DHT22;15181;49.112;11.930;2022-11-23T04:48:10;4.50;99.90
27801;DHT22;15181;49.112;11.930;2022-11-23T04:50:37;4.50;99.90
27801;DHT22;15181;49.112;11.930;2022-11-23T04:53:04;4.50;99.90
27801;DHT22;15181;49.112;11.930;2022-11-23T04:55:31;4.50;99.90
27801;DHT22;15181;49.112;11.930;2022-11-23T04:57:58;4.50;99.90
27801;DHT22;15181;49.112;11.930;2022-11-23T05:00:25;4.50;99.90
27801;DHT22;15181;49.112;11.930;2022-11-23T05:02:53;4.50;99.90
27801;DHT22;15181;49.112;11.930;2022-11-23T05:05:20;4.50;99.90
27801;DHT22;15181;49.112;11.930;2022-11-23T05:07:47;4.50;99.90
27801;DHT22;15181;49.112;11.930;2022-11-23T05:10:14;4.50;99.90
27801;DHT22;15181;49.112;11.930;2022-11-23T05:12:41;4.40;99.90
27801;DHT22;15181;49.112;11.930;2022-11-23T05:15:11;4.40;99.90
27801;DHT22;15181;49.112;11.930;2022-11-23T05:17:39;4.30;99.90
27801;DHT22;15181;49.112;11.930;2022-11-23T05:20:08;4.40;99.90
27801;DHT22;15181;49.112;11.930;2022-11-23T05:22:36;4.40;99.90
27801;DHT22;15181;49.112;11.930;2022-11-23T05:25:03;4.40;99.90
27801;DHT22;15181;49.112;11.930;2022-11-23T05:27:30;4.40;99.90
27801;DHT22;15181;49.112;11.930;2022-11-23T05:29:57;4.40;99.90
27801;DHT22;15181;49.112;11.930;2022-11-23T05:32:23;4.40;99.90
27801;DHT22;15181;49.112;11.930;2022-11-23T05:34:50;4.40;99.90
27801;DHT22;15181;49.112;11.930;2022-11-23T05:37:18;4.30;99.90
27801;DHT22;15181;49.112;11.930;2022-11-23T05:39:45;4.30;99.90
27801;DHT22;15181;49.112;11.930;2022-11-23T05:42:12;4.30;99.90
27801;DHT22;15181;49.112;11.930;2022-11-23T05:44:39;4.30;99.90
27801;DHT22;15181;49.112;11.930;2022-11-23T05:47:06;4.40;99.90
27801;DHT22;15181;49.112;11.930;2022-11-23T05:49:33;4.20;99.90
27801;DHT22;15181;49.112;11.930;2022-11-23T05:52:00;4.30;99.90
27801;DHT22;15181;49.112;11.930;2022-11-23T05:54:28;4.30;99.90
27801;DHT22;15181;49.112;11.930;2022-11-23T05:56:55;4.40;99.90
27801;DHT22;15181;49.112;11.930;2022-11-23T05:59:22;4.40;99.90
27801;DHT22;15181;49.112;11.930;2022-11-23T06:01:49;4.40;99.90
27801;DHT22;15181;49.112;11.930;2022-11-23T06:04:15;4.40;99.90
27801;DHT22;15181;49.112;11.930;2022-11-23T06:06:42;4.40;99.90
27801;DHT22;15181;49.112;11.930;2022-11-23T06:09:09;4.40;99.90
27801;DHT22;15181;49.112;11.930;2022-11-23T06:11:38;4.40;99.90
27801;DHT22;15181;49.112;11.930;2022-11-23T06:14:04;4.40;99.90
27801;DHT22;15181;49.112;11.930;2022-11-23T06:16:31;4.40;99.90
27801;DHT22;15181;49.112;11.930;2022-11-23T06:18:58;4.40;99.90
27801;DHT22;15181;49.112;11.930;2022-11-23T06:21:25;4.40;99.90
27801;DHT22;15181;49.112;11.930;2022-11-23T06:23:52;4.40;99.90
27801;DHT22;15181;49.112;11.930;2022-11-23T06:26:19;4.40;99.90
27801;DHT22;15181;49.112;11.930;2022-11-23T06:28:47;4.40;99.90
27801;DHT22;15181;49.112;11.930;2022-11-23T06:31:14;4.40;99.90
27801;DHT22;15181;49.112;11.930;2022-11-23T06:33:41;4.40;99.90
27801;DHT22;15181;49.112;11.930;2022-11-23T06:36:09;4.40;99.90
27801;DHT22;15181;49.112;11.930;2022-11-23T06:38:36;4.50;99.90
27801;DHT22;15181;49.112;11.930;2022-11-23T06:41:03;4.50;99.90
27801;DHT22;15181;49.112;11.930;2022-11-23T06:43:31;4.40;99.90
27801;DHT22;15181;49.112;11.930;2022-11-23T06:46:02;4.30;99.90
27801;DHT22;15181;49.112;11.930;2022-11-23T06:48:30;4.40;99.90
27801;DHT22;15181;49.112;11.930;2022-11-23T06:50:57;4.40;99.90
27801;DHT22;15181;49.112;11.930;2022-11-23T06:53:24;4.40;99.90
27801;DHT22;15181;49.112;11.930;2022-11-23T06:55:51;4.40;99.90
27801;DHT22;15181;49.112;11.930;2022-11-23T06:58:18;4.50;99.90
27801;DHT22;15181;49.112;11.930;2022-11-23T07:00:45;4.50;99.90
27801;DHT22;15181;49.112;11.930;2022-11-23T07:03:18;4.50;99.90
27801;DHT22;15181;49.112;11.930;2022-11-23T07:05:45;4.60;99.90
27801;DHT22;15181;49.112;11.930;2022-11-23T07:08:12;4.60;99.90
27801;DHT22;15181;49.112;11.930;2022-11-23T07:10:39;4.60;99.90
27801;DHT22;15181;49.112;11.930;2022-11-23T07:13:07;4.60;99.90
27801;DHT22;15181;49.112;11.930;2022-11-23T07:15:35;4.70;99.90
27801;DHT22;15181;49.112;11.930;2022-11-23T07:18:02;4.60;99.90
27801;DHT22;15181;49.112;11.930;2022-11-23T07:20:31;4.60;99.90
27801;DHT22;15181;49.112;11.930;2022-11-23T07:22:59;4.60;99.90
27801;DHT22;15181;49.112;11.930;2022-11-23T07:25:26;4.70;99.90
27801;DHT22;15181;49.112;11.930;2022-11-23T07:27:54;4.70;99.90
27801;DHT22;15181;49.112;11.930;2022-11-23T07:30:21;4.70;99.90
27801;DHT22;15181;49.112;11.930;2022-11-23T07:32:48;4.80;99.90
27801;DHT22;15181;49.112;11.930;2022-11-23T07:35:15;4.70;99.90
27801;DHT22;15181;49.112;11.930;2022-11-23T07:37:44;4.80;99.90
27801;DHT22;15181;49.112;11.930;2022-11-23T07:40:11;4.80;99.90
27801;DHT22;15181;49.112;11.930;2022-11-23T07:42:38;4.80;99.90
27801;DHT22;15181;49.112;11.930;2022-11-23T07:45:06;4.80;99.90
27801;DHT22;15181;49.112;11.930;2022-11-23T07:47:33;4.80;99.90
27801;DHT22;15181;49.112;11.930;2022-11-23T07:50:00;4.80;99.90
27801;DHT22;15181;49.112;11.930;2022-11-23T07:52:28;4.80;99.90
27801;DHT22;15181;49.112;11.930;2022-11-23T07:54:56;4.80;99.90
27801;DHT22;15181;49.112;11.930;2022-11-23T07:57:24;4.80;99.90
27801;DHT22;15181;49.112;11.930;2022-11-23T07:59:51;4.90;99.90
27801;DHT22;15181;49.112;11.930;2022-11-23T08:02:19;4.80;99.90
27801;DHT22;15181;49.112;11.930;2022-11-23T08:04:46;4.80;99.90
27801;DHT22;15181;49.112;11.930;2022-11-23T08:07:13;4.80;99.90
27801;DHT22;15181;49.112;11.930;2022-11-23T08:09:40;4.80;99.90
27801;DHT22;15181;49.112;11.930;2022-11-23T08:12:08;4.90;99.90
27801;DHT22;15181;49.112;11.930;2022-11-23T08:14:35;4.90;99.90
27801;DHT22;15181;49.112;11.930;2022-11-23T08:17:02;4.90;99.90
27801;DHT22;15181;49.112;11.930;2022-11-23T08:19:29;4.90;99.90
27801;DHT22;15181;49.112;11.930;2022-11-23T08:21:56;4.90;99.90
27801;DHT22;15181;49.112;11.930;2022-11-23T08:24:23;4.90;99.90
27801;DHT22;15181;49.112;11.930;2022-11-23T08:26:49;4.90;99.90
27801;DHT22;15181;49.112;11.930;2022-11-23T08:29:18;4.90;99.90
27801;DHT22;15181;49.112;11.930;2022-11-23T08:31:45;4.90;99.90
27801;DHT22;15181;49.112;11.930;2022-11-23T08:34:12;4.90;99.90
27801;DHT22;15181;49.112;11.930;2022-11-23T08:36:39;5.00;99.90
27801;DHT22;15181;49.112;11.930;2022-11-23T08:39:06;5.00;99.90
27801;DHT22;15181;49.112;11.930;2022-11-23T08:41:35;5.00;99.90
27801;DHT22;15181;49.112;11.930;2022-11-23T08:44:02;5.10;99.90
27801;DHT22;15181;49.112;11.930;2022-11-23T08:46:30;5.10;99.90
27801;DHT22;15181;49.112;11.930;2022-11-23T08:48:57;5.10;99.90
27801;DHT22;15181;49.112;11.930;2022-11-23T08:51:24;5.10;99.90
27801;DHT22;15181;49.112;11.930;2022-11-23T08:53:51;5.10;99.90
27801;DHT22;15181;49.112;11.930;2022-11-23T08:56:18;5.20;99.90
27801;DHT22;15181;49.112;11.930;2022-11-23T08:58:45;5.20;99.90
27801;DHT22;15181;49.112;11.930;2022-11-23T09:01:14;5.20;99.90
27801;DHT22;15181;49.112;11.930;2022-11-23T09:03:43;5.20;99.90
27801;DHT22;15181;49.112;11.930;2022-11-23T09:06:10;5.20;99.90
27801;DHT22;15181;49.112;11.930;2022-11-23T09:08:37;5.20;99.90
27801;DHT22;15181;49.112;11.930;2022-11-23T09:11:06;5.30;99.90
27801;DHT22;15181;49.112;11.930;2022-11-23T09:13:34;5.30;99.90
27801;DHT22;15181;49.112;11.930;2022-11-23T09:16:03;5.30;99.90
27801;DHT22;15181;49.112;11.930;2022-11-23T09:18:31;5.30;99.90
27801;DHT22;15181;49.112;11.930;2022-11-23T09:21:03;5.40;99.90
27801;DHT22;15181;49.112;11.930;2022-11-23T09:23:30;5.40;99.90
27801;DHT22;15181;49.112;11.930;2022-11-23T09:25:57;5.40;99.90
27801;DHT22;15181;49.112;11.930;2022-11-23T09:28:24;5.40;99.90
27801;DHT22;15181;49.112;11.930;2022-11-23T09:30:52;5.50;99.90
27801;DHT22;15181;49.112;11.930;2022-11-23T09:33:20;5.50;99.90
27801;DHT22;15181;49.112;11.930;2022-11-23T09:35:53;5.50;99.90
27801;DHT22;15181;49.112;11.930;2022-11-23T09:38:22;5.60;99.90
27801;DHT22;15181;49.112;11.930;2022-11-23T09:40:55;5.60;99.90
27801;DHT22;15181;49.112;11.930;2022-11-23T09:43:44;5.60;99.90
27801;DHT22;15181;49.112;11.930;2022-11-23T09:46:21;5.60;99.90
27801;DHT22;15181;49.112;11.930;2022-11-23T09:51:36;5.80;99.90
27801;DHT22;15181;49.112;11.930;2022-11-23T09:54:15;5.80;99.90
27801;DHT22;15181;49.112;11.930;2022-11-23T09:56:46;5.80;99.90
27801;DHT22;15181;49.112;11.930;2022-11-23T09:59:22;5.90;99.90
27801;DHT22;15181;49.112;11.930;2022-11-23T10:01:51;5.90;99.90
27801;DHT22;15181;49.112;11.930;2022-11-23T10:04:19;5.90;99.90
27801;DHT22;15181;49.112;11.930;2022-11-23T10:06:52;6.00;99.90
27801;DHT22;15181;49.112;11.930;2022-11-23T10:09:28;6.10;99.90
27801;DHT22;15181;49.112;11.930;2022-11-23T10:12:16;6.10;99.90
27801;DHT22;15181;49.112;11.930;2022-11-23T10:14:54;6.10;99.90
27801;DHT22;15181;49.112;11.930;2022-11-23T10:17:34;6.20;99.90
27801;DHT22;15181;49.112;11.930;2022-11-23T10:20:19;6.30;99.90
27801;DHT22;15181;49.112;11.930;2022-11-23T10:22:51;6.30;99.90
27801;DHT22;15181;49.112;11.930;2022-11-23T10:25:24;6.40;99.90
27801;DHT22;15181;49.112;11.930;2022-11-23T10:27:55;6.50;99.90
27801;DHT22;15181;49.112;11.930;2022-11-23T10:30:22;6.50;99.90
27801;DHT22;15181;49.112;11.930;2022-11-23T10:32:53;6.50;99.90
27801;DHT22;15181;49.112;11.930;2022-11-23T10:35:26;6.50;99.90
27801;DHT22;15181;49.112;11.930;2022-11-23T10:38:04;6.50;99.90
27801;DHT22;15181;49.112;11.930;2022-11-23T10:40:38;6.50;99.90
27801;DHT22;15181;49.112;11.930;2022-11-23T10:43:13;6.50;99.90
27801;DHT22;15181;49.112;11.930;2022-11-23T10:45:41;6.50;99.90
27801;DHT22;15181;49.112;11.930;2022-11-23T10:48:08;6.50;99.90
27801;DHT22;15181;49.112;11.930;2022-11-23T10:50:36;6.50;99.90
27801;DHT22;15181;49.112;11.930;2022-11-23T10:53:20;6.50;99.90
27801;DHT22;15181;49.112;11.930;2022-11-23T10:55:51;6.50;99.90
27801;DHT22;15181;49.112;11.930;2022-11-23T10:58:27;6.70;99.90
27801;DHT22;15181;49.112;11.930;2022-11-23T11:01:02;6.60;99.90
27801;DHT22;15181;49.112;11.930;2022-11-23T11:03:30;6.60;99.90
27801;DHT22;15181;49.112;11.930;2022-11-23T11:05:58;6.60;99.90
27801;DHT22;15181;49.112;11.930;2022-11-23T11:08:28;6.60;99.90
27801;DHT22;15181;49.112;11.930;2022-11-23T11:11:01;6.50;99.90
27801;DHT22;15181;49.112;11.930;2022-11-23T11:13:30;6.60;99.90
27801;DHT22;15181;49.112;11.930;2022-11-23T11:16:00;6.60;99.90
27801;DHT22;15181;49.112;11.930;2022-11-23T11:18:29;6.60;99.90
27801;DHT22;15181;49.112;11.930;2022-11-23T11:20:59;6.60;99.90
27801;DHT22;15181;49.112;11.930;2022-11-23T11:23:28;6.70;99.90
27801;DHT22;15181;49.112;11.930;2022-11-23T11:26:20;6.60;99.90
27801;DHT22;15181;49.112;11.930;2022-11-23T11:28:49;6.70;99.90
27801;DHT22;15181;49.112;11.930;2022-11-23T11:31:36;6.90;99.90
27801;DHT22;15181;49.112;11.930;2022-11-23T11:34:13;6.80;99.90
27801;DHT22;15181;49.112;11.930;2022-11-23T11:36:47;6.80;99.90
27801;DHT22;15181;49.112;11.930;2022-11-23T11:39:22;6.80;99.90
27801;DHT22;15181;49.112;11.930;2022-11-23T11:41:52;6.90;99.90
27801;DHT22;15181;49.112;11.930;2022-11-23T11:44:21;6.90;99.90
27801;DHT22;15181;49.112;11.930;2022-11-23T11:46:55;6.90;99.90
27801;DHT22;15181;49.112;11.930;2022-11-23T11:49:26;7.00;99.90
27801;DHT22;15181;49.112;11.930;2022-11-23T11:51:58;7.00;99.90
27801;DHT22;15181;49.112;11.930;2022-11-23T11:54:31;6.90;99.90
27801;DHT22;15181;49.112;11.930;2022-11-23T11:57:05;6.90;99.90
27801;DHT22;15181;49.112;11.930;2022-11-23T11:59:38;7.00;99.90
27801;DHT22;15181;49.112;11.930;2022-11-23T12:02:18;6.90;99.90
27801;DHT22;15181;49.112;11.930;2022-11-23T12:04:53;7.00;99.90
27801;DHT22;15181;49.112;11.930;2022-11-23T12:07:26;6.90;99.90
27801;DHT22;15181;49.112;11.930;2022-11-23T12:10:00;6.90;99.90
27801;DHT22;15181;49.112;11.930;2022-11-23T12:12:31;6.90;99.90
27801;DHT22;15181;49.112;11.930;2022-11-23T12:14:58;6.80;99.90
27801;DHT22;15181;49.112;11.930;2022-11-23T12:17:36;6.80;99.90
27801;DHT22;15181;49.112;11.930;2022-11-23T12:20:10;6.80;99.90
27801;DHT22;15181;49.112;11.930;2022-11-23T12:22:57;6.80;99.90
27801;DHT22;15181;49.112;11.930;2022-11-23T12:25:29;6.70;99.90
27801;DHT22;15181;49.112;11.930;2022-11-23T12:28:13;6.70;99.90
27801;DHT22;15181;49.112;11.930;2022-11-23T12:30:53;6.70;99.90
27801;DHT22;15181;49.112;11.930;2022-11-23T12:33:36;6.70;99.90
27801;DHT22;15181;49.112;11.930;2022-11-23T12:36:18;6.70;99.90
27801;DHT22;15181;49.112;11.930;2022-11-23T12:38:54;6.70;99.90
27801;DHT22;15181;49.112;11.930;2022-11-23T12:41:23;6.70;99.90
27801;DHT22;15181;49.112;11.930;2022-11-23T12:44:12;6.70;99.90
27801;DHT22;15181;49.112;11.930;2022-11-23T12:46:46;6.80;99.90
27801;DHT22;15181;49.112;11.930;2022-11-23T12:49:22;6.70;99.90
27801;DHT22;15181;49.112;11.930;2022-11-23T12:51:59;6.70;99.90
27801;DHT22;15181;49.112;11.930;2022-11-23T12:54:40;6.70;99.90
27801;DHT22;15181;49.112;11.930;2022-11-23T12:57:16;6.70;99.90
27801;DHT22;15181;49.112;11.930;2022-11-23T12:59:49;6.70;99.90
27801;DHT22;15181;49.112;11.930;2022-11-23T13:03:02;6.70;99.90
27801;DHT22;15181;49.112;11.930;2022-11-23T13:11:53;6.90;99.90
27801;DHT22;15181;49.112;11.930;2022-11-23T13:14:27;6.90;99.90
27801;DHT22;15181;49.112;11.930;2022-11-23T13:17:06;6.90;99.90
27801;DHT22;15181;49.112;11.930;2022-11-23T13:19:52;6.90;99.90
27801;DHT22;15181;49.112;11.930;2022-11-23T13:22:21;6.90;99.90
27801;DHT22;15181;49.112;11.930;2022-11-23T13:27:44;6.70;99.90
27801;DHT22;15181;49.112;11.930;2022-11-23T13:30:28;6.60;99.90
27801;DHT22;15181;49.112;11.930;2022-11-23T13:33:00;6.70;99.90
27801;DHT22;15181;49.112;11.930;2022-11-23T13:35:53;6.60;99.90
27801;DHT22;15181;49.112;11.930;2022-11-23T13:38:26;6.50;99.90
27801;DHT22;15181;49.112;11.930;2022-11-23T13:40:54;6.50;99.90
27801;DHT22;15181;49.112;11.930;2022-11-23T13:43:24;6.50;99.90
27801;DHT22;15181;49.112;11.930;2022-11-23T13:46:22;6.40;99.90
27801;DHT22;15181;49.112;11.930;2022-11-23T13:48:55;6.30;99.90
27801;DHT22;15181;49.112;11.930;2022-11-23T13:51:26;6.40;99.90
27801;DHT22;15181;49.112;11.930;2022-11-23T13:53:57;6.30;99.90
27801;DHT22;15181;49.112;11.930;2022-11-23T13:56:31;6.30;99.90
27801;DHT22;15181;49.112;11.930;2022-11-23T13:59:24;6.60;99.90
27801;DHT22;15181;49.112;11.930;2022-11-23T14:07:59;6.50;99.90
27801;DHT22;15181;49.112;11.930;2022-11-23T14:10:29;6.50;99.90
27801;DHT22;15181;49.112;11.930;2022-11-23T14:13:00;6.60;99.90
27801;DHT22;15181;49.112;11.930;2022-11-23T14:15:31;6.70;99.90
27801;DHT22;15181;49.112;11.930;2022-11-23T14:18:17;6.70;99.90
27801;DHT22;15181;49.112;11.930;2022-11-23T14:21:00;6.70;99.90
27801;DHT22;15181;49.112;11.930;2022-11-23T14:23:47;6.70;99.90
27801;DHT22;15181;49.112;11.930;2022-11-23T14:26:24;6.60;99.90
27801;DHT22;15181;49.112;11.930;2022-11-23T14:31:56;6.50;99.90
27801;DHT22;15181;49.112;11.930;2022-11-23T14:34:33;6.60;99.90
27801;DHT22;15181;49.112;11.930;2022-11-23T14:37:09;6.60;99.90
27801;DHT22;15181;49.112;11.930;2022-11-23T14:40:00;6.60;99.90
27801;DHT22;15181;49.112;11.930;2022-11-23T14:42:29;6.40;99.90
27801;DHT22;15181;49.112;11.930;2022-11-23T14:45:01;6.40;99.90
27801;DHT22;15181;49.112;11.930;2022-11-23T14:47:30;6.40;99.90
27801;DHT22;15181;49.112;11.930;2022-11-23T14:49:57;6.30;99.90
27801;DHT22;15181;49.112;11.930;2022-11-23T14:52:27;6.20;99.90
27801;DHT22;15181;49.112;11.930;2022-11-23T14:54:57;6.20;99.90
27801;DHT22;15181;49.112;11.930;2022-11-23T14:57:28;6.20;99.90
27801;DHT22;15181;49.112;11.930;2022-11-23T14:59:58;6.10;99.90
27801;DHT22;15181;49.112;11.930;2022-11-23T15:02:32;6.00;99.90
27801;DHT22;15181;49.112;11.930;2022-11-23T15:05:05;6.00;99.90
27801;DHT22;15181;49.112;11.930;2022-11-23T15:07:53;6.10;99.90
27801;DHT22;15181;49.112;11.930;2022-11-23T15:10:29;6.10;99.90
27801;DHT22;15181;49.112;11.930;2022-11-23T15:12:59;6.10;99.90
27801;DHT22;15181;49.112;11.930;2022-11-23T15:15:27;6.10;99.90
27801;DHT22;15181;49.112;11.930;2022-11-23T15:17:56;6.10;99.90
27801;DHT22;15181;49.112;11.930;2022-11-23T15:20:26;6.10;99.90
27801;DHT22;15181;49.112;11.930;2022-11-23T15:22:55;6.10;99.90
27801;DHT22;15181;49.112;11.930;2022-11-23T15:25:22;6.00;99.90
27801;DHT22;15181;49.112;11.930;2022-11-23T15:27:49;6.00;99.90
27801;DHT22;15181;49.112;11.930;2022-11-23T15:30:18;6.00;99.90
27801;DHT22;15181;49.112;11.930;2022-11-23T15:32:56;5.80;99.90
27801;DHT22;15181;49.112;11.930;2022-11-23T15:35:27;5.90;99.90
27801;DHT22;15181;49.112;11.930;2022-11-23T15:37:57;5.90;99.90
27801;DHT22;15181;49.112;11.930;2022-11-23T15:40:28;5.90;99.90
27801;DHT22;15181;49.112;11.930;2022-11-23T15:42:55;5.90;99.90
27801;DHT22;15181;49.112;11.930;2022-11-23T15:45:33;6.00;99.90
27801;DHT22;15181;49.112;11.930;2022-11-23T15:48:00;6.00;99.90
27801;DHT22;15181;49.112;11.930;2022-11-23T15:50:28;6.00;99.90
27801;DHT22;15181;49.112;11.930;2022-11-23T15:52:58;6.00;99.90
27801;DHT22;15181;49.112;11.930;2022-11-23T15:55:25;6.00;99.90
27801;DHT22;15181;49.112;11.930;2022-11-23T15:57:52;6.00;99.90
27801;DHT22;15181;49.112;11.930;2022-11-23T16:00:21;6.10;99.90
27801;DHT22;15181;49.112;11.930;2022-11-23T16:02:49;6.10;99.90
27801;DHT22;15181;49.112;11.930;2022-11-23T16:05:19;6.10;99.90
27801;DHT22;15181;49.112;11.930;2022-11-23T16:07:56;6.10;99.90
27801;DHT22;15181;49.112;11.930;2022-11-23T16:10:25;6.00;99.90